createdAt,value
2018-10-05T00:00:13.190Z,69.9
2018-10-05T00:01:02.682Z,69.9
2018-10-05T00:01:53.269Z,69.9
2018-10-05T00:02:43.935Z,69.8
2018-10-05T00:03:33.132Z,69.8
2018-10-05T00:04:23.766Z,69.8
2018-10-05T00:05:13.242Z,69.8
2018-10-05T00:06:03.079Z,69.8
2018-10-05T00:06:53.651Z,69.8
2018-10-05T00:25:27.573Z,69.6
2018-10-05T00:26:02.945Z,69.6
2018-10-05T00:26:52.699Z,69.6
2018-10-05T00:27:42.753Z,69.6
2018-10-05T00:28:32.840Z,69.6
2018-10-05T00:29:22.858Z,69.5
2018-10-05T00:30:12.885Z,69.5
2018-10-05T00:31:02.747Z,69.5
2018-10-05T00:31:53.072Z,69.5
2018-10-05T00:32:43.202Z,69.4
2018-10-05T00:33:33.174Z,69.4
2018-10-05T00:34:22.700Z,69.4
2018-10-05T00:35:13.264Z,69.4
2018-10-05T00:36:03.389Z,69.4
2018-10-05T00:36:53.409Z,69.4
2018-10-05T00:37:43.216Z,69.4
2018-10-05T00:38:33.829Z,69.4
2018-10-05T00:39:24.012Z,69.4
2018-10-05T00:40:13.954Z,69.4
2018-10-05T00:41:04.034Z,69.4
2018-10-05T00:41:54.136Z,69.4
2018-10-05T00:42:43.856Z,69.4
2018-10-05T00:43:33.901Z,69.3
2018-10-05T00:44:23.106Z,69.4
2018-10-05T00:45:15.061Z,69.3
2018-10-05T00:46:04.382Z,69.3
2018-10-05T00:46:54.165Z,69.3
2018-10-05T00:47:44.498Z,69.3
2018-10-05T00:48:33.984Z,69.3
2018-10-05T00:49:24.586Z,69.3
2018-10-05T00:50:14.113Z,69.3
2018-10-05T00:51:04.483Z,69.3
2018-10-05T00:51:54.233Z,69.3
2018-10-05T00:52:45.148Z,69.3
2018-10-05T00:53:36.033Z,69.3
2018-10-05T00:54:24.150Z,69.3
2018-10-05T00:55:14.546Z,69.2
2018-10-05T00:56:05.093Z,69.2
2018-10-05T00:56:54.944Z,69.2
2018-10-05T00:57:45.023Z,69.2
2018-10-05T00:58:35.050Z,69.1
2018-10-05T00:59:25.358Z,69.1
2018-10-05T01:00:15.334Z,69.1
2018-10-05T01:01:04.677Z,69.1
2018-10-05T01:01:55.679Z,69.1
2018-10-05T01:02:45.683Z,69.1
2018-10-05T01:03:35.660Z,69.1
2018-10-05T01:04:25.458Z,69.1
2018-10-05T01:05:30.120Z,69.1
2018-10-05T01:06:05.845Z,69.1
2018-10-05T01:06:55.050Z,69.1
2018-10-05T01:07:45.967Z,69
2018-10-05T01:08:35.692Z,69.1
2018-10-05T01:09:26.103Z,69
2018-10-05T01:10:15.319Z,69
2018-10-05T01:11:06.216Z,69
2018-10-05T01:11:55.992Z,69
2018-10-05T01:12:46.057Z,69
2018-10-05T01:13:36.352Z,68.9
2018-10-05T01:14:25.687Z,68.9
2018-10-05T01:15:15.976Z,68.9
2018-10-05T01:16:06.309Z,68.9
2018-10-05T01:17:11.036Z,68.9
2018-10-05T01:17:46.440Z,68.9
2018-10-05T01:18:36.756Z,68.9
2018-10-05T01:19:26.559Z,68.9
2018-10-05T01:20:16.053Z,68.9
2018-10-05T01:21:07.172Z,68.9
2018-10-05T01:21:57.001Z,68.9
2018-10-05T01:22:46.547Z,68.9
2018-10-05T01:23:37.174Z,68.8
2018-10-05T01:24:26.085Z,68.9
2018-10-05T01:25:17.216Z,68.8
2018-10-05T01:26:07.584Z,68.8
2018-10-05T01:26:56.813Z,68.8
2018-10-05T01:27:46.901Z,68.8
2018-10-05T01:28:37.946Z,68.8
2018-10-05T01:29:27.043Z,68.8
2018-10-05T01:30:17.055Z,68.8
2018-10-05T01:31:07.741Z,68.8
2018-10-05T01:31:57.251Z,68.8
2018-10-05T01:32:47.829Z,68.8
2018-10-05T01:33:37.654Z,68.8
2018-10-05T01:34:27.659Z,68.8
2018-10-05T01:35:17.708Z,68.7
2018-10-05T01:36:07.791Z,68.7
2018-10-05T01:36:58.133Z,68.7
2018-10-05T01:37:47.891Z,68.7
2018-10-05T01:38:38.316Z,68.7
2018-10-05T01:39:28.319Z,68.6
2018-10-05T01:40:18.386Z,68.6
2018-10-05T01:41:08.163Z,68.6
2018-10-05T01:41:58.166Z,68.6
2018-10-05T01:42:48.678Z,68.6
2018-10-05T01:43:38.642Z,68.6
2018-10-05T01:44:28.725Z,68.6
2018-10-05T01:45:18.803Z,68.6
2018-10-05T01:46:08.255Z,68.6
2018-10-05T01:46:58.828Z,68.6
2018-10-05T01:47:47.517Z,68.6
2018-10-05T01:48:38.469Z,68.5
2018-10-05T01:49:29.025Z,68.6
2018-10-05T01:50:19.148Z,68.5
2018-10-05T01:51:08.640Z,68.5
2018-10-05T01:51:59.567Z,68.5
2018-10-05T01:52:49.033Z,68.5
2018-10-05T01:53:39.093Z,68.5
2018-10-05T01:54:29.444Z,68.5
2018-10-05T01:55:18.975Z,68.4
2018-10-05T01:56:08.115Z,68.4
2018-10-05T01:56:59.589Z,68.4
2018-10-05T01:57:49.860Z,68.4
2018-10-05T01:58:39.185Z,68.4
2018-10-05T01:59:30.251Z,68.4
2018-10-05T02:00:19.594Z,68.4
2018-10-05T02:01:09.396Z,68.4
2018-10-05T02:02:00.308Z,68.4
2018-10-05T02:02:49.777Z,68.4
2018-10-05T02:03:40.101Z,68.4
2018-10-05T02:04:29.633Z,68.4
2018-10-05T02:05:19.671Z,68.4
2018-10-05T02:06:09.996Z,68.3
2018-10-05T02:06:59.479Z,68.3
2018-10-05T02:07:50.089Z,68.3
2018-10-05T02:08:39.914Z,68.3
2018-10-05T02:09:30.519Z,68.3
2018-10-05T02:10:20.064Z,68.3
2018-10-05T02:11:10.091Z,68.3
2018-10-05T02:12:00.721Z,68.3
2018-10-05T02:12:49.685Z,68.3
2018-10-05T02:13:40.820Z,68.3
2018-10-05T02:14:30.874Z,68.3
2018-10-05T02:15:20.690Z,68.3
2018-10-05T02:16:10.734Z,68.2
2018-10-05T02:17:01.132Z,68.2
2018-10-05T02:18:05.792Z,68.2
2018-10-05T02:18:41.219Z,68.2
2018-10-05T02:19:31.289Z,68.2
2018-10-05T02:20:20.822Z,68.2
2018-10-05T02:21:10.589Z,68.1
2018-10-05T02:22:00.913Z,68.1
2018-10-05T02:22:51.506Z,68.1
2018-10-05T02:23:41.316Z,68.1
2018-10-05T02:24:31.396Z,68.1
2018-10-05T02:25:21.378Z,68.1
2018-10-05T02:26:11.948Z,68.1
2018-10-05T02:27:01.029Z,68.1
2018-10-05T02:27:51.870Z,68.1
2018-10-05T02:28:41.664Z,68.1
2018-10-05T02:29:31.473Z,68.1
2018-10-05T02:30:21.813Z,68.1
2018-10-05T02:31:11.871Z,68.1
2018-10-05T02:32:01.936Z,68
2018-10-05T02:32:52.721Z,68
2018-10-05T02:33:42.335Z,68
2018-10-05T02:34:32.106Z,68
2018-10-05T02:35:37.118Z,68
2018-10-05T02:36:12.541Z,68
2018-10-05T02:37:16.945Z,67.9
2018-10-05T02:37:52.650Z,67.9
2018-10-05T02:38:42.357Z,67.9
2018-10-05T02:39:32.688Z,67.9
2018-10-05T02:40:22.293Z,67.9
2018-10-05T02:41:27.045Z,67.9
2018-10-05T02:42:02.938Z,67.9
2018-10-05T02:42:52.380Z,67.9
2018-10-05T02:43:43.011Z,67.9
2018-10-05T02:44:32.868Z,67.9
2018-10-05T02:45:23.177Z,67.9
2018-10-05T02:46:13.257Z,67.9
2018-10-05T02:47:02.425Z,67.9
2018-10-05T02:47:53.364Z,67.8
2018-10-05T02:48:43.704Z,67.8
2018-10-05T02:49:33.507Z,67.8
2018-10-05T02:50:23.553Z,67.8
2018-10-05T02:51:13.912Z,67.8
2018-10-05T02:52:03.711Z,67.8
2018-10-05T02:52:53.440Z,67.8
2018-10-05T02:53:43.454Z,67.8
2018-10-05T02:54:33.294Z,67.8
2018-10-05T02:55:23.074Z,67.8
2018-10-05T02:56:13.994Z,67.8
2018-10-05T02:57:03.204Z,67.8
2018-10-05T02:57:54.123Z,67.7
2018-10-05T02:58:43.679Z,67.7
2018-10-05T02:59:34.215Z,67.7
2018-10-05T03:00:23.984Z,67.7
2018-10-05T03:01:14.264Z,67.7
2018-10-05T03:02:04.161Z,67.7
2018-10-05T03:02:53.726Z,67.7
2018-10-05T03:03:44.563Z,67.6
2018-10-05T03:04:34.298Z,67.6
2018-10-05T03:05:24.698Z,67.6
2018-10-05T03:06:14.456Z,67.6
2018-10-05T03:07:04.213Z,67.6
2018-10-05T03:07:55.000Z,67.6
2018-10-05T03:08:44.933Z,67.6
2018-10-05T03:09:34.665Z,67.6
2018-10-05T03:10:24.766Z,67.6
2018-10-05T03:11:14.225Z,67.6
2018-10-05T03:12:05.465Z,67.5
2018-10-05T03:12:55.237Z,67.5
2018-10-05T03:13:45.255Z,67.5
2018-10-05T03:14:35.045Z,67.5
2018-10-05T03:15:25.135Z,67.5
2018-10-05T03:16:15.169Z,67.5
2018-10-05T03:17:04.947Z,67.4
2018-10-05T03:17:54.759Z,67.4
2018-10-05T03:18:45.648Z,67.4
2018-10-05T03:19:34.622Z,67.4
2018-10-05T03:20:25.489Z,67.4
2018-10-05T03:21:15.265Z,67.4
2018-10-05T03:22:05.937Z,67.4
2018-10-05T03:22:55.963Z,67.4
2018-10-05T03:23:45.705Z,67.4
2018-10-05T03:24:35.809Z,67.4
2018-10-05T03:25:26.986Z,67.4
2018-10-05T03:26:16.361Z,67.4
2018-10-05T03:27:05.703Z,67.4
2018-10-05T03:27:56.314Z,67.4
2018-10-05T03:28:46.651Z,67.3
2018-10-05T03:29:36.463Z,67.3
2018-10-05T03:30:26.557Z,67.3
2018-10-05T03:31:16.029Z,67.3
2018-10-05T03:32:06.382Z,67.3
2018-10-05T03:32:56.564Z,67.3
2018-10-05T03:33:46.761Z,67.3
2018-10-05T03:34:36.518Z,67.3
2018-10-05T03:35:26.576Z,67.3
2018-10-05T03:36:16.889Z,67.3
2018-10-05T03:37:06.952Z,67.3
2018-10-05T03:37:57.054Z,67.3
2018-10-05T03:38:47.176Z,67.3
2018-10-05T03:39:37.463Z,67.2
2018-10-05T03:40:26.928Z,67.2
2018-10-05T03:41:16.713Z,67.2
2018-10-05T03:42:07.077Z,67.2
2018-10-05T03:42:57.118Z,67.2
2018-10-05T03:43:47.493Z,67.2
2018-10-05T03:44:37.505Z,67.1
2018-10-05T03:45:27.613Z,67.1
2018-10-05T03:46:17.698Z,67.1
2018-10-05T03:47:06.864Z,67.1
2018-10-05T03:47:57.437Z,67.1
2018-10-05T03:48:47.037Z,67.1
2018-10-05T03:49:36.782Z,67.1
2018-10-05T03:50:27.438Z,67.1
2018-10-05T03:51:18.022Z,67.1
2018-10-05T03:52:07.813Z,67.1
2018-10-05T03:52:57.914Z,67.1
2018-10-05T03:53:47.652Z,67.1
2018-10-05T03:54:38.272Z,67.1
2018-10-05T03:55:27.522Z,67.1
2018-10-05T03:56:17.872Z,67
2018-10-05T03:57:08.215Z,67
2018-10-05T03:57:58.325Z,67
2018-10-05T03:58:48.294Z,67
2018-10-05T03:59:38.397Z,67
2018-10-05T04:00:28.477Z,67
2018-10-05T04:01:18.514Z,66.9
2018-10-05T04:02:08.277Z,66.9
2018-10-05T04:02:58.064Z,66.9
2018-10-05T04:03:48.623Z,66.9
2018-10-05T04:04:38.279Z,66.9
2018-10-05T04:05:29.086Z,66.9
2018-10-05T04:06:19.121Z,66.9
2018-10-05T04:07:08.385Z,66.9
2018-10-05T04:07:58.384Z,66.9
2018-10-05T04:08:49.069Z,66.9
2018-10-05T04:09:39.136Z,66.9
2018-10-05T04:10:28.611Z,66.9
2018-10-05T04:11:21.085Z,66.9
2018-10-05T04:12:08.747Z,66.8
2018-10-05T04:12:58.826Z,66.9
2018-10-05T04:13:49.150Z,66.8
2018-10-05T04:14:39.483Z,66.8
2018-10-05T04:15:29.271Z,66.8
2018-10-05T04:16:19.892Z,66.8
2018-10-05T04:17:09.876Z,66.8
2018-10-05T04:17:59.706Z,66.8
2018-10-05T04:18:49.794Z,66.8
2018-10-05T04:19:39.838Z,66.8
2018-10-05T04:20:29.649Z,66.8
2018-10-05T04:21:20.028Z,66.8
2018-10-05T04:22:10.058Z,66.8
2018-10-05T04:23:00.167Z,66.8
2018-10-05T04:23:49.884Z,66.7
2018-10-05T04:24:39.738Z,66.7
2018-10-05T04:25:30.003Z,66.7
2018-10-05T04:26:21.896Z,66.7
2018-10-05T04:27:10.973Z,66.6
2018-10-05T04:28:00.284Z,66.7
2018-10-05T04:28:50.503Z,66.6
2018-10-05T04:29:40.316Z,66.6
2018-10-05T04:30:30.648Z,66.6
2018-10-05T04:31:35.171Z,66.6
2018-10-05T04:32:10.582Z,66.6
2018-10-05T04:33:00.618Z,66.6
2018-10-05T04:33:50.123Z,66.6
2018-10-05T04:34:39.883Z,66.6
2018-10-05T04:35:31.377Z,66.6
2018-10-05T04:36:20.580Z,66.6
2018-10-05T04:54:34.143Z,66.4
2018-10-05T04:55:24.688Z,66.4
2018-10-05T04:56:15.054Z,66.3
2018-10-05T04:57:05.177Z,66.3
2018-10-05T04:57:54.637Z,66.3
2018-10-05T04:58:44.677Z,66.3
2018-10-05T04:59:35.259Z,66.3
2018-10-05T05:00:25.306Z,66.3
2018-10-05T05:01:14.874Z,66.3
2018-10-05T05:02:04.662Z,66.3
2018-10-05T05:02:55.232Z,66.3
2018-10-05T05:03:45.097Z,66.3
2018-10-05T05:04:35.638Z,66.3
2018-10-05T05:05:24.369Z,66.2
2018-10-05T05:06:14.604Z,66.2
2018-10-05T05:07:05.273Z,66.2
2018-10-05T05:07:55.589Z,66.2
2018-10-05T05:08:44.876Z,66.2
2018-10-05T05:09:35.761Z,66.2
2018-10-05T05:10:25.621Z,66.1
2018-10-05T05:11:16.096Z,66.1
2018-10-05T05:12:06.225Z,66.1
2018-10-05T05:12:55.766Z,66.1
2018-10-05T05:13:44.688Z,66.1
2018-10-05T05:14:35.593Z,66.1
2018-10-05T05:15:25.928Z,66.1
2018-10-05T05:16:15.461Z,66.1
2018-10-05T05:17:05.484Z,66.1
2018-10-05T05:17:56.155Z,66.1
2018-10-05T05:18:45.960Z,66.1
2018-10-05T05:19:36.664Z,66.1
2018-10-05T05:20:26.293Z,66
2018-10-05T05:21:16.079Z,66.1
2018-10-05T05:22:05.885Z,66.1
2018-10-05T05:22:55.637Z,66
2018-10-05T05:23:46.562Z,66
2018-10-05T05:24:36.312Z,66
2018-10-05T05:25:26.575Z,66
2018-10-05T05:26:16.636Z,65.9
2018-10-05T05:27:07.260Z,66
2018-10-05T05:27:57.329Z,65.9
2018-10-05T05:28:47.218Z,65.9
2018-10-05T05:29:36.661Z,65.9
2018-10-05T05:30:27.474Z,65.9
2018-10-05T05:31:16.458Z,65.9
2018-10-05T05:32:07.370Z,65.9
2018-10-05T05:32:57.739Z,65.9
2018-10-05T05:33:47.953Z,65.9
2018-10-05T05:34:36.994Z,65.9
2018-10-05T05:35:27.868Z,65.9
2018-10-05T05:36:17.931Z,65.9
2018-10-05T05:37:07.418Z,65.9
2018-10-05T05:37:57.795Z,65.9
2018-10-05T05:38:47.810Z,65.8
2018-10-05T05:39:37.928Z,65.8
2018-10-05T05:40:28.762Z,65.8
2018-10-05T05:41:18.013Z,65.8
2018-10-05T05:42:08.335Z,65.8
2018-10-05T05:42:57.852Z,65.8
2018-10-05T05:43:48.533Z,65.8
2018-10-05T05:44:38.553Z,65.8
2018-10-05T05:45:28.341Z,65.8
2018-10-05T05:46:18.368Z,65.8
2018-10-05T05:47:08.733Z,65.8
2018-10-05T05:47:58.530Z,65.8
2018-10-05T05:48:49.102Z,65.7
2018-10-05T05:49:38.342Z,65.7
2018-10-05T05:50:28.685Z,65.7
2018-10-05T05:51:18.757Z,65.7
2018-10-05T05:52:09.165Z,65.7
2018-10-05T05:52:58.910Z,65.7
2018-10-05T05:53:49.720Z,65.7
2018-10-05T05:54:39.839Z,65.6
2018-10-05T05:55:29.089Z,65.6
2018-10-05T05:56:19.702Z,65.6
2018-10-05T05:57:08.914Z,65.6
2018-10-05T05:57:59.007Z,65.6
2018-10-05T05:58:49.595Z,65.6
2018-10-05T05:59:38.815Z,65.6
2018-10-05T06:00:29.744Z,65.6
2018-10-05T06:01:19.382Z,65.6
2018-10-05T06:02:09.824Z,65.6
2018-10-05T06:02:59.761Z,65.6
2018-10-05T06:03:49.979Z,65.6
2018-10-05T06:04:39.746Z,65.5
2018-10-05T06:05:29.814Z,65.6
2018-10-05T06:06:20.177Z,65.5
2018-10-05T06:07:09.991Z,65.5
2018-10-05T06:08:00.484Z,65.5
2018-10-05T06:08:50.098Z,65.5
2018-10-05T06:09:40.159Z,65.5
2018-10-05T06:10:30.144Z,65.4
2018-10-05T06:11:19.994Z,65.4
2018-10-05T06:12:10.028Z,65.4
2018-10-05T06:13:00.080Z,65.4
2018-10-05T06:13:50.188Z,65.4
2018-10-05T06:14:40.770Z,65.4
2018-10-05T06:15:31.166Z,65.4
2018-10-05T06:16:21.018Z,65.4
2018-10-05T06:17:10.364Z,65.4
2018-10-05T06:18:01.019Z,65.4
2018-10-05T06:18:51.086Z,65.4
2018-10-05T06:19:41.181Z,65.4
2018-10-05T06:20:30.998Z,65.4
2018-10-05T06:21:20.757Z,65.3
2018-10-05T06:22:11.179Z,65.3
2018-10-05T06:23:00.851Z,65.3
2018-10-05T06:23:51.144Z,65.3
2018-10-05T06:24:41.191Z,65.3
2018-10-05T06:25:31.655Z,65.3
2018-10-05T06:26:21.323Z,65.3
2018-10-05T06:27:12.160Z,65.3
2018-10-05T06:28:01.773Z,65.3
2018-10-05T06:28:51.511Z,65.3
2018-10-05T06:29:41.850Z,65.3
2018-10-05T06:30:31.743Z,65.3
2018-10-05T06:31:22.541Z,65.3
2018-10-05T06:32:11.561Z,65.2
2018-10-05T06:33:02.073Z,65.2
2018-10-05T06:33:51.620Z,65.2
2018-10-05T06:34:42.465Z,65.2
2018-10-05T06:35:31.741Z,65.2
2018-10-05T06:36:21.788Z,65.2
2018-10-05T06:37:13.000Z,65.2
2018-10-05T06:38:02.803Z,65.1
2018-10-05T06:38:52.115Z,65.2
2018-10-05T06:39:42.327Z,65.1
2018-10-05T06:40:32.521Z,65.1
2018-10-05T06:41:22.445Z,65.1
2018-10-05T06:42:14.787Z,65.1
2018-10-05T06:43:02.562Z,65.1
2018-10-05T06:43:52.325Z,65.1
2018-10-05T06:44:42.137Z,65.1
2018-10-05T06:45:32.749Z,65.1
2018-10-05T06:46:22.795Z,65.1
2018-10-05T06:47:12.607Z,65.1
2018-10-05T06:48:03.192Z,65.1
2018-10-05T06:48:52.424Z,65
2018-10-05T06:49:43.050Z,65
2018-10-05T06:50:33.112Z,65
2018-10-05T06:51:23.448Z,65
2018-10-05T06:52:12.956Z,65
2018-10-05T06:53:03.050Z,65
2018-10-05T06:53:53.082Z,65
2018-10-05T06:54:43.497Z,64.9
2018-10-05T06:55:33.194Z,64.9
2018-10-05T06:56:23.842Z,64.9
2018-10-05T06:57:13.864Z,64.9
2018-10-05T06:58:04.226Z,64.9
2018-10-05T06:58:53.461Z,64.9
2018-10-05T06:59:44.014Z,64.9
2018-10-05T07:00:33.246Z,64.9
2018-10-05T07:01:23.315Z,64.9
2018-10-05T07:02:14.287Z,64.9
2018-10-05T07:03:03.463Z,64.9
2018-10-05T07:03:54.074Z,64.8
2018-10-05T07:04:43.896Z,64.8
2018-10-05T07:05:34.220Z,64.9
2018-10-05T07:06:24.255Z,64.8
2018-10-05T07:07:14.363Z,64.8
2018-10-05T07:08:05.471Z,64.8
2018-10-05T07:08:54.180Z,64.8
2018-10-05T07:09:44.246Z,64.8
2018-10-05T07:10:34.006Z,64.8
2018-10-05T07:11:24.497Z,64.8
2018-10-05T07:12:14.103Z,64.8
2018-10-05T07:13:04.747Z,64.8
2018-10-05T07:13:54.851Z,64.8
2018-10-05T07:14:44.918Z,64.8
2018-10-05T07:15:34.912Z,64.8
2018-10-05T07:16:25.080Z,64.8
2018-10-05T07:17:15.590Z,64.7
2018-10-05T07:18:05.608Z,64.7
2018-10-05T07:18:55.246Z,64.7
2018-10-05T07:19:44.977Z,64.7
2018-10-05T07:20:35.325Z,64.7
2018-10-05T07:21:26.751Z,64.6
2018-10-05T07:22:15.214Z,64.6
2018-10-05T07:23:05.203Z,64.6
2018-10-05T07:23:55.554Z,64.6
2018-10-05T07:24:45.377Z,64.6
2018-10-05T07:25:35.109Z,64.6
2018-10-05T07:26:26.016Z,64.6
2018-10-05T07:27:15.847Z,64.6
2018-10-05T07:28:06.191Z,64.6
2018-10-05T07:28:56.232Z,64.6
2018-10-05T07:29:46.260Z,64.6
2018-10-05T07:30:36.357Z,64.6
2018-10-05T07:31:25.816Z,64.6
2018-10-05T07:32:15.934Z,64.6
2018-10-05T07:33:05.932Z,64.6
2018-10-05T07:33:56.316Z,64.5
2018-10-05T07:34:46.468Z,64.5
2018-10-05T07:35:36.431Z,64.5
2018-10-05T07:36:26.578Z,64.5
2018-10-05T07:37:17.106Z,64.5
2018-10-05T07:38:05.458Z,64.4
2018-10-05T07:38:56.374Z,64.4
2018-10-05T07:39:46.476Z,64.4
2018-10-05T07:40:37.070Z,64.4
2018-10-05T07:41:26.841Z,64.4
2018-10-05T07:42:16.901Z,64.4
2018-10-05T07:43:08.193Z,64.4
2018-10-05T07:43:57.246Z,64.4
2018-10-05T07:44:47.363Z,64.4
2018-10-05T07:45:37.112Z,64.4
2018-10-05T07:46:27.513Z,64.4
2018-10-05T07:47:17.278Z,64.4
2018-10-05T07:48:07.659Z,64.4
2018-10-05T07:48:57.910Z,64.3
2018-10-05T07:49:47.723Z,64.3
2018-10-05T07:50:37.252Z,64.3
2018-10-05T07:51:27.858Z,64.3
2018-10-05T07:52:17.368Z,64.3
2018-10-05T07:53:07.187Z,64.3
2018-10-05T07:53:58.320Z,64.3
2018-10-05T07:54:47.305Z,64.3
2018-10-05T07:55:37.945Z,64.3
2018-10-05T07:56:27.686Z,64.3
2018-10-05T07:57:17.961Z,64.3
2018-10-05T07:58:07.545Z,64.3
2018-10-05T07:58:58.155Z,64.3
2018-10-05T07:59:47.945Z,64.3
2018-10-05T08:00:38.528Z,64.2
2018-10-05T08:01:28.351Z,64.2
2018-10-05T08:02:18.662Z,64.2
2018-10-05T08:03:07.899Z,64.2
2018-10-05T08:03:58.814Z,64.2
2018-10-05T08:04:48.824Z,64.2
2018-10-05T08:05:38.160Z,64.2
2018-10-05T08:06:28.491Z,64.1
2018-10-05T08:07:18.786Z,64.1
2018-10-05T08:08:09.089Z,64.1
2018-10-05T08:08:58.917Z,64.1
2018-10-05T08:09:49.136Z,64.1
2018-10-05T08:10:38.791Z,64.1
2018-10-05T08:11:28.894Z,64.1
2018-10-05T08:12:18.404Z,64.1
2018-10-05T08:13:08.998Z,64.1
2018-10-05T08:13:58.773Z,64.1
2018-10-05T08:14:49.121Z,64.1
2018-10-05T08:15:38.894Z,64.1
2018-10-05T08:16:28.744Z,64.1
2018-10-05T08:17:19.516Z,64.1
2018-10-05T08:18:08.516Z,64
2018-10-05T08:18:59.189Z,64
2018-10-05T08:19:50.024Z,64
2018-10-05T08:20:39.769Z,64
2018-10-05T08:21:29.683Z,64
2018-10-05T08:22:19.413Z,64
2018-10-05T08:23:09.943Z,64
2018-10-05T08:23:59.989Z,63.9
2018-10-05T08:24:50.350Z,63.9
2018-10-05T08:25:40.111Z,63.9
2018-10-05T08:26:28.698Z,63.9
2018-10-05T08:27:19.595Z,63.9
2018-10-05T08:28:09.636Z,63.9
2018-10-05T08:28:59.606Z,63.9
2018-10-05T08:29:50.726Z,63.9
2018-10-05T08:30:40.038Z,63.9
2018-10-05T08:31:30.081Z,63.9
2018-10-05T08:32:19.608Z,63.9
2018-10-05T08:33:11.225Z,63.9
2018-10-05T08:34:02.030Z,63.9
2018-10-05T08:34:50.558Z,63.9
2018-10-05T08:35:40.870Z,63.9
2018-10-05T08:36:30.762Z,63.8
2018-10-05T08:37:20.235Z,63.8
2018-10-05T08:38:10.547Z,63.8
2018-10-05T08:39:00.608Z,63.8
2018-10-05T08:39:51.876Z,63.8
2018-10-05T08:40:41.518Z,63.8
2018-10-05T08:41:30.546Z,63.8
2018-10-05T08:42:21.391Z,63.8
2018-10-05T08:43:11.158Z,63.8
2018-10-05T08:44:00.975Z,63.8
2018-10-05T08:44:51.577Z,63.8
2018-10-05T08:45:41.412Z,63.8
2018-10-05T08:46:30.112Z,63.8
2018-10-05T08:47:21.487Z,63.7
2018-10-05T08:48:10.754Z,63.7
2018-10-05T08:49:00.235Z,63.7
2018-10-05T08:49:51.163Z,63.7
2018-10-05T08:50:41.203Z,63.7
2018-10-05T08:51:32.135Z,63.7
2018-10-05T08:52:22.254Z,63.6
2018-10-05T09:08:40.394Z,63.7
2018-10-05T09:09:30.177Z,63.8
2018-10-05T09:10:20.781Z,63.9
2018-10-05T09:11:10.214Z,63.9
2018-10-05T09:12:00.645Z,64
2018-10-05T09:12:50.680Z,64.1
2018-10-05T09:13:40.191Z,64.2
2018-10-05T09:14:29.980Z,64.3
2018-10-05T09:15:20.028Z,64.4
2018-10-05T09:16:10.370Z,64.4
2018-10-05T09:17:00.729Z,64.5
2018-10-05T09:17:51.470Z,64.6
2018-10-05T09:18:41.423Z,64.7
2018-10-05T09:19:30.601Z,64.8
2018-10-05T09:20:20.978Z,64.8
2018-10-05T09:21:11.305Z,64.9
2018-10-05T09:22:01.393Z,64.9
2018-10-05T09:22:51.682Z,65
2018-10-05T09:23:41.165Z,65.1
2018-10-05T09:24:31.575Z,65.1
2018-10-05T09:25:20.097Z,65.3
2018-10-05T09:26:11.675Z,65.3
2018-10-05T09:27:01.195Z,65.4
2018-10-05T09:27:51.790Z,65.5
2018-10-05T09:28:41.545Z,65.6
2018-10-05T09:29:31.907Z,65.6
2018-10-05T09:30:21.707Z,65.7
2018-10-05T09:31:10.914Z,65.8
2018-10-05T09:32:00.771Z,65.8
2018-10-05T09:32:51.325Z,65.9
2018-10-05T09:33:42.407Z,66
2018-10-05T09:34:32.538Z,66.1
2018-10-05T09:35:21.229Z,66.1
2018-10-05T09:36:12.379Z,66.2
2018-10-05T09:37:01.944Z,66.3
2018-10-05T09:37:53.542Z,66.4
2018-10-05T09:38:42.568Z,66.4
2018-10-05T09:39:32.384Z,66.5
2018-10-05T09:40:22.407Z,66.6
2018-10-05T09:41:12.166Z,66.7
2018-10-05T09:42:02.563Z,66.8
2018-10-05T09:42:53.146Z,66.8
2018-10-05T09:43:43.346Z,66.9
2018-10-05T09:44:32.477Z,66.9
2018-10-05T09:45:23.002Z,67
2018-10-05T09:46:13.408Z,67.1
2018-10-05T09:47:03.709Z,67.1
2018-10-05T09:47:52.978Z,67.2
2018-10-05T09:48:42.838Z,67.3
2018-10-05T09:49:32.656Z,67.4
2018-10-05T09:50:23.159Z,67.4
2018-10-05T09:51:14.235Z,67.5
2018-10-05T09:52:03.262Z,67.6
2018-10-05T09:52:53.897Z,67.6
2018-10-05T09:53:43.711Z,67.7
2018-10-05T09:54:33.723Z,67.8
2018-10-05T09:55:22.693Z,67.8
2018-10-05T09:56:12.598Z,67.9
2018-10-05T09:57:02.905Z,67.9
2018-10-05T09:57:54.402Z,68
2018-10-05T09:58:44.101Z,68.1
2018-10-05T09:59:34.258Z,68.2
2018-10-05T10:00:23.414Z,68.2
2018-10-05T10:01:14.014Z,68.3
2018-10-05T10:02:04.045Z,68.4
2018-10-05T10:02:54.667Z,68.5
2018-10-05T10:03:44.443Z,68.5
2018-10-05T10:04:34.517Z,68.6
2018-10-05T10:05:24.083Z,68.7
2018-10-05T10:06:14.688Z,68.8
2018-10-05T10:07:04.113Z,68.8
2018-10-05T10:07:55.438Z,68.9
2018-10-05T10:08:44.552Z,68.9
2018-10-05T10:09:34.605Z,69.1
2018-10-05T10:10:24.385Z,69.1
2018-10-05T10:11:14.200Z,69.2
2018-10-05T10:12:04.712Z,69.2
2018-10-05T10:12:54.282Z,69.3
2018-10-05T10:13:45.556Z,69.4
2018-10-05T10:14:35.694Z,69.4
2018-10-05T10:15:25.860Z,69.4
2018-10-05T10:16:15.037Z,69.5
2018-10-05T10:17:04.857Z,69.6
2018-10-05T10:17:55.707Z,69.7
2018-10-05T10:18:45.802Z,69.7
2018-10-05T10:19:35.519Z,69.8
2018-10-05T10:20:25.861Z,69.8
2018-10-05T10:21:15.509Z,69.9
2018-10-05T10:22:05.459Z,70
2018-10-05T10:22:55.802Z,70
2018-10-05T10:23:45.585Z,70.1
2018-10-05T10:24:36.171Z,70.2
2018-10-05T10:25:25.704Z,70.3
2018-10-05T10:26:16.596Z,70.3
2018-10-05T10:27:06.364Z,70.4
2018-10-05T10:27:56.768Z,70.4
2018-10-05T10:28:47.716Z,70.4
2018-10-05T10:29:37.514Z,70.6
2018-10-05T10:30:26.136Z,70.6
2018-10-05T10:31:16.756Z,70.8
2018-10-05T10:32:06.713Z,70.8
2018-10-05T10:32:56.244Z,70.8
2018-10-05T10:33:48.049Z,70.9
2018-10-05T10:34:37.805Z,70.9
2018-10-05T10:35:27.287Z,71
2018-10-05T10:36:17.348Z,71.1
2018-10-05T10:37:07.697Z,71.1
2018-10-05T10:37:56.605Z,71.1
2018-10-05T10:38:46.986Z,71.2
2018-10-05T10:39:37.838Z,71.3
2018-10-05T10:40:27.099Z,71.4
2018-10-05T10:41:17.698Z,71.4
2018-10-05T10:42:07.496Z,71.4
2018-10-05T10:42:56.992Z,71.6
2018-10-05T10:43:47.890Z,71.6
2018-10-05T10:44:37.689Z,71.6
2018-10-05T10:45:28.279Z,71.7
2018-10-05T10:46:18.066Z,71.8
2018-10-05T10:47:07.038Z,71.8
2018-10-05T10:47:57.952Z,71.9
2018-10-05T10:48:47.111Z,71.9
2018-10-05T10:49:37.751Z,72
2018-10-05T10:50:28.096Z,72.1
2018-10-05T10:51:17.411Z,72.1
2018-10-05T10:52:08.000Z,72.1
2018-10-05T10:52:58.012Z,72.2
2018-10-05T10:53:48.340Z,72.3
2018-10-05T10:54:38.120Z,72.3
2018-10-05T10:55:27.618Z,72.4
2018-10-05T10:56:20.073Z,72.4
2018-10-05T10:57:08.628Z,72.4
2018-10-05T10:57:58.645Z,72.5
2018-10-05T10:58:48.712Z,72.6
2018-10-05T10:59:38.213Z,72.6
2018-10-05T11:00:28.585Z,72.6
2018-10-05T11:01:19.140Z,72.7
2018-10-05T11:02:09.238Z,72.8
2018-10-05T11:02:59.054Z,72.8
2018-10-05T11:03:49.113Z,72.9
2018-10-05T11:04:40.641Z,72.9
2018-10-05T11:05:29.510Z,72.9
2018-10-05T11:06:18.412Z,73
2018-10-05T11:07:09.322Z,73.1
2018-10-05T11:07:59.496Z,73.1
2018-10-05T11:08:49.563Z,73.1
2018-10-05T11:09:39.561Z,73.2
2018-10-05T11:10:29.099Z,73.2
2018-10-05T11:11:20.954Z,73.3
2018-10-05T11:12:10.042Z,73.3
2018-10-05T11:12:59.187Z,73.4
2018-10-05T11:13:49.537Z,73.4
2018-10-05T11:14:39.619Z,73.4
2018-10-05T11:15:30.209Z,73.5
2018-10-05T11:16:20.521Z,73.6
2018-10-05T11:17:11.238Z,73.6
2018-10-05T11:18:00.115Z,73.6
2018-10-05T11:18:50.172Z,73.7
2018-10-05T11:19:40.543Z,73.7
2018-10-05T11:20:30.600Z,73.8
2018-10-05T11:21:20.115Z,73.8
2018-10-05T11:22:10.709Z,73.8
2018-10-05T11:23:00.463Z,73.8
2018-10-05T11:23:50.864Z,73.8
2018-10-05T11:24:40.919Z,73.8
2018-10-05T11:25:30.667Z,73.9
2018-10-05T11:26:21.020Z,73.9
2018-10-05T11:27:10.233Z,73.9
2018-10-05T11:28:01.153Z,74
2018-10-05T11:28:50.635Z,74
2018-10-05T11:29:41.640Z,74.1
2018-10-05T11:30:30.486Z,74.1
2018-10-05T11:31:21.135Z,74.1
2018-10-05T11:32:11.443Z,74.1
2018-10-05T11:33:01.268Z,74.2
2018-10-05T11:33:51.283Z,74.2
2018-10-05T11:34:41.346Z,74.3
2018-10-05T11:35:31.129Z,74.3
2018-10-05T11:36:21.536Z,74.3
2018-10-05T11:37:11.593Z,74.3
2018-10-05T11:38:01.388Z,74.3
2018-10-05T11:38:51.995Z,74.3
2018-10-05T11:39:41.558Z,74.4
2018-10-05T11:40:31.835Z,74.4
2018-10-05T11:41:21.089Z,74.4
2018-10-05T11:42:11.697Z,74.4
2018-10-05T11:43:02.090Z,74.4
2018-10-05T11:43:51.627Z,74.5
2018-10-05T11:44:41.892Z,74.5
2018-10-05T11:45:31.962Z,74.6
2018-10-05T11:46:22.715Z,74.6
2018-10-05T11:47:11.507Z,74.6
2018-10-05T11:48:02.115Z,74.6
2018-10-05T11:48:52.215Z,74.7
2018-10-05T11:49:42.454Z,74.7
2018-10-05T11:50:31.564Z,74.7
2018-10-05T11:51:22.508Z,74.8
2018-10-05T11:52:12.578Z,74.8
2018-10-05T11:53:02.006Z,74.8
2018-10-05T11:53:52.663Z,74.8
2018-10-05T11:54:42.469Z,74.8
2018-10-05T11:55:32.803Z,74.9
2018-10-05T11:56:23.059Z,74.9
2018-10-05T11:57:12.636Z,74.9
2018-10-05T11:58:02.660Z,74.9
2018-10-05T11:58:53.217Z,74.9